SIA377 LEBL-LIMC
Flight info
| Callsign | SIA377 |
|---|---|
| Flight time | 1h 7m |
| Altitude | 30000 |
| Route | AGENA DCT BODEQ DCT LUMAS DCT UNANA DCT STP DCT RAPED DCT PIGOS DCT EKSID DCT NOSTA DCT EGHIN DCT ANAKI/N0434F180 P860 DEVOX |
| Aircraft | A359/H-SDE2E3GHIJ3J4J5LM1ORWXY/LB1D1 |
Departure
| Time | 2026-05-05 11:31 |
|---|---|
| Airport | Josep Tarradellas Barcelona-El Prat Airport (LEBL) |
Arrival
| Time | 2026-05-05 12:39 |
|---|---|
| Airport | Milan Malpensa International Airport (LIMC) |
| Time | Latitude | Longitude | Altitude | Speed | Heading |
|---|---|---|---|---|---|
| 2026-05-05 10:47 | 41.29239 | 2.08220 | 30 ft | 0 kts | 204° |
| 2026-05-05 11:18 | 41.29258 | 2.08231 | 30 ft | 4 kts | 204° |
| 2026-05-05 11:18 | 41.29283 | 2.08245 | 31 ft | 4 kts | 204° |
| 2026-05-05 11:19 | 41.29303 | 2.08256 | 31 ft | 4 kts | 188° |
| 2026-05-05 11:19 | 41.29327 | 2.08253 | 31 ft | 4 kts | 140° |
| 2026-05-05 11:19 | 41.29336 | 2.08229 | 31 ft | 4 kts | 71° |
| 2026-05-05 11:19 | 41.29326 | 2.08197 | 31 ft | 4 kts | 65° |
| 2026-05-05 11:20 | 41.29322 | 2.08185 | 31 ft | 0 kts | 65° |
| 2026-05-05 11:24 | 41.29328 | 2.08204 | 28 ft | 6 kts | 65° |
| 2026-05-05 11:24 | 41.29358 | 2.08291 | 29 ft | 13 kts | 65° |
| 2026-05-05 11:25 | 41.29345 | 2.08388 | 29 ft | 11 kts | 144° |
| 2026-05-05 11:25 | 41.29271 | 2.08435 | 27 ft | 12 kts | 155° |
| 2026-05-05 11:25 | 41.29185 | 2.08488 | 30 ft | 16 kts | 155° |
| 2026-05-05 11:25 | 41.29071 | 2.08557 | 26 ft | 20 kts | 155° |
| 2026-05-05 11:26 | 41.28945 | 2.08633 | 28 ft | 21 kts | 156° |
| 2026-05-05 11:26 | 41.28872 | 2.08682 | 28 ft | 9 kts | 131° |
| 2026-05-05 11:26 | 41.28874 | 2.08764 | 27 ft | 10 kts | 68° |
| 2026-05-05 11:26 | 41.28914 | 2.08881 | 25 ft | 18 kts | 66° |
| 2026-05-05 11:27 | 41.28974 | 2.09059 | 27 ft | 22 kts | 65° |
| 2026-05-05 11:27 | 41.29041 | 2.09256 | 27 ft | 24 kts | 66° |
| 2026-05-05 11:27 | 41.29113 | 2.09465 | 26 ft | 26 kts | 65° |
| 2026-05-05 11:27 | 41.29190 | 2.09687 | 27 ft | 27 kts | 65° |
| 2026-05-05 11:28 | 41.29241 | 2.09836 | 26 ft | 14 kts | 65° |
| 2026-05-05 11:28 | 41.29280 | 2.09929 | 26 ft | 12 kts | 55° |
| 2026-05-05 11:28 | 41.29321 | 2.10035 | 27 ft | 14 kts | 65° |
| 2026-05-05 11:28 | 41.29358 | 2.10146 | 25 ft | 7 kts | 65° |
| 2026-05-05 11:29 | 41.29364 | 2.10221 | 25 ft | 10 kts | 105° |
| 2026-05-05 11:29 | 41.29304 | 2.10285 | 22 ft | 14 kts | 155° |
| 2026-05-05 11:29 | 41.29239 | 2.10309 | 21 ft | 6 kts | 185° |
| 2026-05-05 11:29 | 41.29210 | 2.10285 | 25 ft | 5 kts | 225° |
| 2026-05-05 11:30 | 41.29190 | 2.10242 | 24 ft | 6 kts | 246° |
| 2026-05-05 11:30 | 41.29189 | 2.10238 | 25 ft | 0 kts | 246° |
| 2026-05-05 11:30 | 41.29188 | 2.10236 | 24 ft | 7 kts | 246° |
| 2026-05-05 11:31 | 41.29048 | 2.09823 | 28 ft | 88 kts | 245° |
| 2026-05-05 11:31 | 41.28701 | 2.08803 | 27 ft | 153 kts | 245° |
| 2026-05-05 11:31 | 41.28241 | 2.07419 | 595 ft | 161 kts | 246° |
| 2026-05-05 11:31 | 41.27781 | 2.06103 | 1450 ft | 155 kts | 237° |
| 2026-05-05 11:32 | 41.26969 | 2.05100 | 1816 ft | 172 kts | 207° |
| 2026-05-05 11:32 | 41.25728 | 2.05031 | 2071 ft | 193 kts | 164° |
| 2026-05-05 11:32 | 41.24404 | 2.05661 | 2417 ft | 208 kts | 164° |
| 2026-05-05 11:32 | 41.22980 | 2.06008 | 3019 ft | 208 kts | 179° |
| 2026-05-05 11:33 | 41.21526 | 2.06021 | 3589 ft | 209 kts | 184° |
| 2026-05-05 11:33 | 41.20072 | 2.05920 | 4206 ft | 210 kts | 186° |
| 2026-05-05 11:33 | 41.18605 | 2.05756 | 4804 ft | 212 kts | 187° |
| 2026-05-05 11:33 | 41.17122 | 2.05620 | 5343 ft | 216 kts | 184° |
| 2026-05-05 11:34 | 41.15578 | 2.05552 | 5827 ft | 229 kts | 184° |
| 2026-05-05 11:34 | 41.13960 | 2.05490 | 6470 ft | 235 kts | 184° |
| 2026-05-05 11:34 | 41.12324 | 2.05422 | 7235 ft | 236 kts | 184° |
| 2026-05-05 11:34 | 41.10662 | 2.05344 | 8097 ft | 242 kts | 185° |
| 2026-05-05 11:35 | 41.08984 | 2.05273 | 9095 ft | 242 kts | 186° |
| 2026-05-05 11:35 | 41.07312 | 2.05213 | 10152 ft | 236 kts | 186° |
| 2026-05-05 11:35 | 41.05681 | 2.05134 | 10729 ft | 239 kts | 186° |
| 2026-05-05 11:35 | 41.04008 | 2.05048 | 11300 ft | 242 kts | 186° |
| 2026-05-05 11:36 | 41.02316 | 2.04964 | 11910 ft | 244 kts | 186° |
| 2026-05-05 11:36 | 41.00602 | 2.05086 | 12515 ft | 252 kts | 173° |
| 2026-05-05 11:36 | 40.98983 | 2.06085 | 13040 ft | 269 kts | 147° |
| 2026-05-05 11:36 | 40.97690 | 2.08008 | 13334 ft | 291 kts | 131° |
| 2026-05-05 11:37 | 40.96506 | 2.10269 | 13608 ft | 307 kts | 130° |
| 2026-05-05 11:37 | 40.95275 | 2.12653 | 13869 ft | 321 kts | 130° |
| 2026-05-05 11:37 | 40.93978 | 2.15130 | 14123 ft | 334 kts | 130° |
| 2026-05-05 11:37 | 40.92622 | 2.17692 | 14371 ft | 347 kts | 130° |
| 2026-05-05 11:38 | 40.91206 | 2.20350 | 14573 ft | 359 kts | 130° |
| 2026-05-05 11:38 | 40.89741 | 2.23093 | 14803 ft | 371 kts | 130° |
| 2026-05-05 11:38 | 40.88408 | 2.26087 | 14971 ft | 389 kts | 118° |
| 2026-05-05 11:38 | 40.87742 | 2.29620 | 15196 ft | 406 kts | 97° |
| 2026-05-05 11:39 | 40.88029 | 2.33361 | 15618 ft | 415 kts | 76° |
| 2026-05-05 11:39 | 40.89265 | 2.36822 | 16032 ft | 422 kts | 55° |
| 2026-05-05 11:39 | 40.91285 | 2.39656 | 16428 ft | 425 kts | 41° |
| 2026-05-05 11:39 | 40.93326 | 2.42514 | 16802 ft | 430 kts | 51° |
| 2026-05-05 11:40 | 40.95193 | 2.45610 | 17211 ft | 433 kts | 51° |
| 2026-05-05 11:40 | 40.97055 | 2.48763 | 17632 ft | 436 kts | 52° |
| 2026-05-05 11:40 | 40.98924 | 2.51950 | 18027 ft | 440 kts | 52° |
| 2026-05-05 11:40 | 41.00799 | 2.55161 | 18389 ft | 443 kts | 52° |
| 2026-05-05 11:41 | 41.02687 | 2.58403 | 18721 ft | 447 kts | 52° |
| 2026-05-05 11:41 | 41.04593 | 2.61680 | 19045 ft | 450 kts | 52° |
| 2026-05-05 11:41 | 41.06510 | 2.64983 | 19381 ft | 453 kts | 52° |
| 2026-05-05 11:41 | 41.08436 | 2.68304 | 19708 ft | 456 kts | 52° |
| 2026-05-05 11:42 | 41.10371 | 2.71646 | 20113 ft | 458 kts | 52° |
| 2026-05-05 11:42 | 41.12319 | 2.75013 | 20382 ft | 463 kts | 52° |
| 2026-05-05 11:42 | 41.14286 | 2.78411 | 20704 ft | 466 kts | 52° |
| 2026-05-05 11:42 | 41.16261 | 2.81833 | 21012 ft | 469 kts | 52° |
| 2026-05-05 11:43 | 41.18246 | 2.85280 | 21343 ft | 472 kts | 52° |
| 2026-05-05 11:43 | 41.20248 | 2.88759 | 21649 ft | 475 kts | 52° |
| 2026-05-05 11:43 | 41.22258 | 2.92255 | 21982 ft | 478 kts | 52° |
| 2026-05-05 11:43 | 41.24257 | 2.95738 | 22294 ft | 482 kts | 52° |
| 2026-05-05 11:44 | 41.26319 | 2.99331 | 22626 ft | 485 kts | 52° |
| 2026-05-05 11:44 | 41.28369 | 3.02909 | 22925 ft | 487 kts | 52° |
| 2026-05-05 11:44 | 41.30426 | 3.06502 | 23223 ft | 490 kts | 52° |
| 2026-05-05 11:44 | 41.32495 | 3.10119 | 23545 ft | 492 kts | 52° |
| 2026-05-05 11:45 | 41.34549 | 3.13717 | 23762 ft | 496 kts | 52° |
| 2026-05-05 11:45 | 41.36637 | 3.17376 | 24020 ft | 498 kts | 52° |
| 2026-05-05 11:45 | 41.38736 | 3.21061 | 24280 ft | 500 kts | 52° |
| 2026-05-05 11:45 | 41.40841 | 3.24760 | 24528 ft | 503 kts | 52° |
| 2026-05-05 11:46 | 41.42960 | 3.28489 | 24780 ft | 505 kts | 52° |
| 2026-05-05 11:46 | 41.45085 | 3.32233 | 25035 ft | 507 kts | 52° |
| 2026-05-05 11:46 | 41.47214 | 3.35987 | 25298 ft | 510 kts | 52° |
| 2026-05-05 11:46 | 41.49356 | 3.39769 | 25562 ft | 512 kts | 52° |
| 2026-05-05 11:47 | 41.51509 | 3.43578 | 25847 ft | 515 kts | 52° |
| 2026-05-05 11:47 | 41.53505 | 3.47540 | 26106 ft | 517 kts | 62° |
| 2026-05-05 11:47 | 41.54929 | 3.51931 | 26400 ft | 516 kts | 75° |
| 2026-05-05 11:47 | 41.55914 | 3.56544 | 26699 ft | 517 kts | 79° |
| 2026-05-05 11:48 | 41.57462 | 3.65955 | 27275 ft | 521 kts | 82° |
| 2026-05-05 11:48 | 41.58179 | 3.70717 | 27572 ft | 524 kts | 82° |
| 2026-05-05 11:48 | 41.58906 | 3.75502 | 27901 ft | 527 kts | 82° |
| 2026-05-05 11:49 | 41.59650 | 3.80300 | 28228 ft | 530 kts | 81° |
| 2026-05-05 11:49 | 41.60415 | 3.85135 | 28507 ft | 533 kts | 81° |
| 2026-05-05 11:49 | 41.61197 | 3.89993 | 28827 ft | 537 kts | 81° |
| 2026-05-05 11:49 | 41.61988 | 3.94884 | 29149 ft | 540 kts | 81° |
| 2026-05-05 11:50 | 41.62782 | 3.99801 | 29475 ft | 543 kts | 81° |
| 2026-05-05 11:50 | 41.63578 | 4.04749 | 29792 ft | 546 kts | 81° |
| 2026-05-05 11:50 | 41.64377 | 4.09731 | 29941 ft | 552 kts | 81° |
| 2026-05-05 11:50 | 41.65184 | 4.14792 | 29950 ft | 559 kts | 81° |
| 2026-05-05 11:51 | 41.66805 | 4.24985 | 29948 ft | 561 kts | 81° |
| 2026-05-05 11:51 | 41.68422 | 4.35205 | 29947 ft | 561 kts | 81° |
| 2026-05-05 11:52 | 41.70026 | 4.45413 | 29951 ft | 560 kts | 81° |
| 2026-05-05 11:52 | 41.71619 | 4.55618 | 29949 ft | 560 kts | 81° |
| 2026-05-05 11:53 | 41.74037 | 4.65530 | 29953 ft | 564 kts | 63° |
| 2026-05-05 11:53 | 41.76141 | 4.69947 | 29955 ft | 564 kts | 51° |
| 2026-05-05 11:53 | 41.78739 | 4.73870 | 29954 ft | 562 kts | 44° |
| 2026-05-05 11:54 | 41.84263 | 4.81300 | 29955 ft | 562 kts | 42° |
| 2026-05-05 11:54 | 41.89881 | 4.88599 | 29963 ft | 562 kts | 42° |
| 2026-05-05 11:55 | 41.95459 | 4.95922 | 29924 ft | 560 kts | 42° |
| 2026-05-05 11:55 | 42.00971 | 5.03241 | 29955 ft | 560 kts | 42° |
| 2026-05-05 11:56 | 42.06503 | 5.10627 | 29952 ft | 560 kts | 43° |
| 2026-05-05 11:56 | 42.12027 | 5.18022 | 29952 ft | 558 kts | 43° |
| 2026-05-05 11:57 | 42.17519 | 5.25392 | 29958 ft | 557 kts | 43° |
| 2026-05-05 11:57 | 42.23012 | 5.32778 | 29958 ft | 557 kts | 43° |
| 2026-05-05 11:58 | 42.28490 | 5.40164 | 29982 ft | 557 kts | 43° |
| 2026-05-05 11:58 | 42.33955 | 5.47552 | 29954 ft | 554 kts | 43° |
| 2026-05-05 11:59 | 42.39399 | 5.54930 | 29958 ft | 554 kts | 43° |
| 2026-05-05 11:59 | 42.44325 | 5.61623 | 29957 ft | 554 kts | 43° |
| 2026-05-05 12:00 | 42.49762 | 5.69028 | 29964 ft | 554 kts | 43° |
| 2026-05-05 12:00 | 42.55182 | 5.76431 | 29961 ft | 552 kts | 43° |
| 2026-05-05 12:01 | 42.60589 | 5.83835 | 29958 ft | 552 kts | 43° |
| 2026-05-05 12:01 | 42.65987 | 5.91246 | 29955 ft | 552 kts | 43° |
| 2026-05-05 12:02 | 42.71346 | 5.98621 | 29955 ft | 552 kts | 43° |
| 2026-05-05 12:02 | 42.76728 | 6.06048 | 29955 ft | 552 kts | 43° |
| 2026-05-05 12:03 | 42.82111 | 6.13497 | 29961 ft | 551 kts | 43° |
| 2026-05-05 12:03 | 42.87688 | 6.20640 | 29960 ft | 548 kts | 38° |
| 2026-05-05 12:04 | 42.92505 | 6.26232 | 29963 ft | 547 kts | 37° |
| 2026-05-05 12:04 | 42.98330 | 6.32903 | 29963 ft | 546 kts | 37° |
| 2026-05-05 12:05 | 43.04147 | 6.39574 | 29962 ft | 546 kts | 37° |
| 2026-05-05 12:05 | 43.09958 | 6.46270 | 29958 ft | 546 kts | 38° |
| 2026-05-05 12:06 | 43.15750 | 6.52970 | 29945 ft | 544 kts | 38° |
| 2026-05-05 12:06 | 43.21414 | 6.59839 | 29954 ft | 546 kts | 45° |
| 2026-05-05 12:07 | 43.26139 | 6.67982 | 29951 ft | 547 kts | 52° |
| 2026-05-05 12:07 | 43.30623 | 6.76436 | 29956 ft | 548 kts | 53° |
| 2026-05-05 12:08 | 43.35060 | 6.84936 | 29928 ft | 548 kts | 53° |
| 2026-05-05 12:08 | 43.39495 | 6.93428 | 29963 ft | 546 kts | 53° |
| 2026-05-05 12:09 | 43.43925 | 7.01893 | 29969 ft | 546 kts | 53° |
| 2026-05-05 12:09 | 43.48362 | 7.10383 | 29964 ft | 546 kts | 53° |
| 2026-05-05 12:10 | 43.52793 | 7.18886 | 29962 ft | 546 kts | 53° |
| 2026-05-05 12:10 | 43.57214 | 7.27400 | 29960 ft | 546 kts | 54° |
| 2026-05-05 12:11 | 43.61634 | 7.35938 | 29968 ft | 547 kts | 54° |
| 2026-05-05 12:11 | 43.66052 | 7.44493 | 29963 ft | 548 kts | 54° |
| 2026-05-05 12:12 | 43.70464 | 7.53067 | 29955 ft | 548 kts | 54° |
| 2026-05-05 12:12 | 43.74874 | 7.61660 | 29947 ft | 547 kts | 54° |
| 2026-05-05 12:13 | 43.79256 | 7.70214 | 29959 ft | 544 kts | 54° |
| 2026-05-05 12:13 | 43.83628 | 7.78780 | 29896 ft | 543 kts | 54° |
| 2026-05-05 12:14 | 43.85832 | 7.83091 | 29635 ft | 553 kts | 54° |
| 2026-05-05 12:14 | 43.88060 | 7.87463 | 29360 ft | 556 kts | 54° |
| 2026-05-05 12:14 | 43.90256 | 7.91776 | 29080 ft | 554 kts | 54° |
| 2026-05-05 12:14 | 43.92471 | 7.96129 | 28643 ft | 549 kts | 54° |
| 2026-05-05 12:15 | 43.94686 | 8.00485 | 27974 ft | 541 kts | 54° |
| 2026-05-05 12:15 | 43.96834 | 8.04722 | 27337 ft | 535 kts | 54° |
| 2026-05-05 12:15 | 43.98962 | 8.08923 | 26674 ft | 529 kts | 54° |
| 2026-05-05 12:15 | 44.01070 | 8.13087 | 26013 ft | 525 kts | 54° |
| 2026-05-05 12:16 | 44.03134 | 8.17169 | 25370 ft | 521 kts | 54° |
| 2026-05-05 12:16 | 44.05115 | 8.21353 | 24710 ft | 516 kts | 62° |
| 2026-05-05 12:16 | 44.06670 | 8.25813 | 24078 ft | 511 kts | 66° |
| 2026-05-05 12:16 | 44.08084 | 8.30340 | 23423 ft | 507 kts | 68° |
| 2026-05-05 12:17 | 44.09408 | 8.34854 | 22708 ft | 502 kts | 69° |
| 2026-05-05 12:17 | 44.10684 | 8.39335 | 22083 ft | 494 kts | 69° |
| 2026-05-05 12:17 | 44.11932 | 8.43758 | 21463 ft | 488 kts | 70° |
| 2026-05-05 12:17 | 44.13164 | 8.48117 | 20829 ft | 481 kts | 70° |
| 2026-05-05 12:18 | 44.14385 | 8.52423 | 20215 ft | 475 kts | 70° |
| 2026-05-05 12:18 | 44.15596 | 8.56677 | 19592 ft | 470 kts | 70° |
| 2026-05-05 12:18 | 44.16795 | 8.60881 | 18961 ft | 464 kts | 70° |
| 2026-05-05 12:18 | 44.18045 | 8.65003 | 18341 ft | 461 kts | 65° |
| 2026-05-05 12:19 | 44.19822 | 8.68688 | 17647 ft | 457 kts | 48° |
| 2026-05-05 12:19 | 44.22243 | 8.71489 | 16996 ft | 450 kts | 30° |
| 2026-05-05 12:19 | 44.25095 | 8.73130 | 16365 ft | 439 kts | 11° |
| 2026-05-05 12:19 | 44.28084 | 8.73680 | 15738 ft | 430 kts | 1° |
| 2026-05-05 12:20 | 44.31035 | 8.73669 | 15150 ft | 421 kts | 354° |
| 2026-05-05 12:20 | 44.33948 | 8.73536 | 14548 ft | 417 kts | 355° |
| 2026-05-05 12:20 | 44.36836 | 8.73491 | 13944 ft | 413 kts | 356° |
| 2026-05-05 12:20 | 44.39694 | 8.73518 | 13306 ft | 408 kts | 358° |
| 2026-05-05 12:21 | 44.42514 | 8.73587 | 12685 ft | 403 kts | 358° |
| 2026-05-05 12:21 | 44.45305 | 8.73677 | 12086 ft | 399 kts | 358° |
| 2026-05-05 12:21 | 44.48072 | 8.73780 | 11497 ft | 395 kts | 359° |
| 2026-05-05 12:21 | 44.50794 | 8.73890 | 11138 ft | 385 kts | 359° |
| 2026-05-05 12:22 | 44.53408 | 8.74002 | 11005 ft | 367 kts | 359° |
| 2026-05-05 12:22 | 44.55913 | 8.74111 | 10877 ft | 351 kts | 359° |
| 2026-05-05 12:22 | 44.58300 | 8.74214 | 10750 ft | 336 kts | 359° |
| 2026-05-05 12:22 | 44.60591 | 8.74315 | 10614 ft | 322 kts | 358° |
| 2026-05-05 12:23 | 44.62761 | 8.74409 | 10503 ft | 310 kts | 358° |
| 2026-05-05 12:23 | 44.64873 | 8.74501 | 10356 ft | 299 kts | 358° |
| 2026-05-05 12:23 | 44.66943 | 8.74587 | 10084 ft | 297 kts | 359° |
| 2026-05-05 12:23 | 44.69005 | 8.74702 | 9763 ft | 298 kts | 2° |
| 2026-05-05 12:24 | 44.71062 | 8.75255 | 9467 ft | 304 kts | 13° |
| 2026-05-05 12:24 | 44.73101 | 8.76071 | 9142 ft | 304 kts | 14° |
| 2026-05-05 12:24 | 44.75127 | 8.76914 | 8845 ft | 303 kts | 15° |
| 2026-05-05 12:24 | 44.77141 | 8.77749 | 8547 ft | 301 kts | 15° |
| 2026-05-05 12:25 | 44.79145 | 8.78576 | 8242 ft | 300 kts | 15° |
| 2026-05-05 12:25 | 44.81140 | 8.79397 | 7938 ft | 298 kts | 15° |
| 2026-05-05 12:25 | 44.83129 | 8.80213 | 7642 ft | 297 kts | 15° |
| 2026-05-05 12:25 | 44.85105 | 8.81024 | 7346 ft | 295 kts | 15° |
| 2026-05-05 12:26 | 44.87069 | 8.81830 | 7035 ft | 293 kts | 15° |
| 2026-05-05 12:26 | 44.89024 | 8.82633 | 6738 ft | 292 kts | 15° |
| 2026-05-05 12:26 | 44.90968 | 8.83432 | 6432 ft | 290 kts | 15° |
| 2026-05-05 12:26 | 44.92880 | 8.84219 | 6234 ft | 281 kts | 15° |
| 2026-05-05 12:27 | 44.94712 | 8.84974 | 6090 ft | 269 kts | 15° |
| 2026-05-05 12:27 | 44.96469 | 8.85699 | 5962 ft | 258 kts | 15° |
| 2026-05-05 12:27 | 44.98154 | 8.86393 | 5810 ft | 248 kts | 15° |
| 2026-05-05 12:27 | 44.99787 | 8.87066 | 5622 ft | 242 kts | 16° |
| 2026-05-05 12:28 | 45.01387 | 8.87727 | 5387 ft | 238 kts | 16° |
| 2026-05-05 12:28 | 45.02967 | 8.88376 | 5155 ft | 236 kts | 15° |
| 2026-05-05 12:28 | 45.04574 | 8.88713 | 4948 ft | 232 kts | 356° |
| 2026-05-05 12:28 | 45.06158 | 8.88408 | 4911 ft | 230 kts | 348° |
| 2026-05-05 12:29 | 45.07726 | 8.87978 | 4876 ft | 229 kts | 348° |
| 2026-05-05 12:29 | 45.09292 | 8.87541 | 4835 ft | 229 kts | 348° |
| 2026-05-05 12:29 | 45.10857 | 8.87108 | 4791 ft | 229 kts | 348° |
| 2026-05-05 12:29 | 45.12422 | 8.86679 | 4748 ft | 229 kts | 348° |
| 2026-05-05 12:30 | 45.13984 | 8.86255 | 4693 ft | 229 kts | 348° |
| 2026-05-05 12:30 | 45.15539 | 8.85831 | 4656 ft | 226 kts | 348° |
| 2026-05-05 12:30 | 45.17081 | 8.85411 | 4602 ft | 225 kts | 348° |
| 2026-05-05 12:30 | 45.18622 | 8.84992 | 4565 ft | 225 kts | 348° |
| 2026-05-05 12:31 | 45.20162 | 8.84573 | 4515 ft | 225 kts | 348° |
| 2026-05-05 12:31 | 45.21695 | 8.84278 | 4469 ft | 225 kts | 353° |
| 2026-05-05 12:31 | 45.23250 | 8.84028 | 4415 ft | 225 kts | 353° |
| 2026-05-05 12:31 | 45.24808 | 8.83766 | 4424 ft | 227 kts | 353° |
| 2026-05-05 12:32 | 45.26375 | 8.83470 | 4413 ft | 228 kts | 352° |
| 2026-05-05 12:32 | 45.27937 | 8.83075 | 4416 ft | 228 kts | 348° |
| 2026-05-05 12:32 | 45.29442 | 8.82621 | 4407 ft | 215 kts | 348° |
| 2026-05-05 12:32 | 45.30916 | 8.82180 | 4412 ft | 217 kts | 348° |
| 2026-05-05 12:33 | 45.32395 | 8.81766 | 4415 ft | 218 kts | 349° |
| 2026-05-05 12:33 | 45.33883 | 8.81362 | 4414 ft | 218 kts | 349° |
| 2026-05-05 12:33 | 45.35373 | 8.80956 | 4417 ft | 218 kts | 349° |
| 2026-05-05 12:33 | 45.36867 | 8.80547 | 4423 ft | 218 kts | 349° |
| 2026-05-05 12:34 | 45.38360 | 8.80137 | 4425 ft | 218 kts | 349° |
| 2026-05-05 12:34 | 45.39843 | 8.79729 | 4443 ft | 216 kts | 349° |
| 2026-05-05 12:34 | 45.41317 | 8.79326 | 4456 ft | 216 kts | 349° |
| 2026-05-05 12:34 | 45.42803 | 8.78918 | 4454 ft | 218 kts | 349° |
| 2026-05-05 12:35 | 45.44275 | 8.78512 | 4248 ft | 212 kts | 351° |
| 2026-05-05 12:35 | 45.45713 | 8.78118 | 3962 ft | 209 kts | 351° |
| 2026-05-05 12:35 | 45.47137 | 8.77727 | 3668 ft | 207 kts | 351° |
| 2026-05-05 12:35 | 45.48537 | 8.77341 | 3368 ft | 202 kts | 351° |
| 2026-05-05 12:36 | 45.49904 | 8.76965 | 3094 ft | 197 kts | 351° |
| 2026-05-05 12:36 | 45.51238 | 8.76597 | 2825 ft | 193 kts | 352° |
| 2026-05-05 12:36 | 45.52547 | 8.76238 | 2562 ft | 190 kts | 351° |
| 2026-05-05 12:36 | 45.53822 | 8.75886 | 2306 ft | 180 kts | 351° |
| 2026-05-05 12:37 | 45.55005 | 8.75558 | 2077 ft | 166 kts | 352° |
| 2026-05-05 12:37 | 45.56085 | 8.75261 | 1853 ft | 154 kts | 351° |
| 2026-05-05 12:37 | 45.57113 | 8.74978 | 1647 ft | 143 kts | 353° |
| 2026-05-05 12:37 | 45.58049 | 8.74722 | 1448 ft | 134 kts | 350° |
| 2026-05-05 12:38 | 45.58950 | 8.74472 | 1269 ft | 129 kts | 349° |
| 2026-05-05 12:38 | 45.59822 | 8.74232 | 1136 ft | 130 kts | 349° |
| 2026-05-05 12:38 | 45.60719 | 8.73987 | 947 ft | 131 kts | 348° |
| 2026-05-05 12:38 | 45.61614 | 8.73739 | 799 ft | 131 kts | 348° |
| 2026-05-05 12:39 | 45.62472 | 8.73499 | 745 ft | 112 kts | 352° |
| 2026-05-05 12:39 | 45.63081 | 8.73333 | 742 ft | 66 kts | 349° |
| 2026-05-05 12:39 | 45.63375 | 8.73252 | 742 ft | 22 kts | 349° |
| 2026-05-05 12:39 | 45.63508 | 8.73215 | 744 ft | 18 kts | 349° |
| 2026-05-05 12:40 | 45.63622 | 8.73159 | 744 ft | 17 kts | 334° |
| 2026-05-05 12:40 | 45.63719 | 8.73068 | 745 ft | 16 kts | 320° |
| 2026-05-05 12:40 | 45.63798 | 8.72949 | 743 ft | 16 kts | 304° |
| 2026-05-05 12:40 | 45.63838 | 8.72865 | 742 ft | 10 kts | 304° |
| 2026-05-05 12:41 | 45.63877 | 8.72786 | 742 ft | 10 kts | 304° |
| 2026-05-05 12:41 | 45.63917 | 8.72702 | 743 ft | 11 kts | 304° |
| 2026-05-05 12:41 | 45.63953 | 8.72610 | 743 ft | 11 kts | 286° |
| 2026-05-05 12:41 | 45.63949 | 8.72507 | 743 ft | 11 kts | 260° |
| 2026-05-05 12:42 | 45.63929 | 8.72353 | 747 ft | 20 kts | 259° |
| 2026-05-05 12:42 | 45.63915 | 8.72170 | 745 ft | 19 kts | 267° |
| 2026-05-05 12:42 | 45.63908 | 8.71989 | 743 ft | 15 kts | 263° |
| 2026-05-05 12:42 | 45.63887 | 8.71875 | 743 ft | 11 kts | 240° |
| 2026-05-05 12:43 | 45.63825 | 8.71819 | 745 ft | 11 kts | 182° |
| 2026-05-05 12:43 | 45.63749 | 8.71839 | 743 ft | 12 kts | 169° |
| 2026-05-05 12:43 | 45.63664 | 8.71862 | 743 ft | 15 kts | 169° |
| 2026-05-05 12:43 | 45.63530 | 8.71899 | 744 ft | 21 kts | 169° |
| 2026-05-05 12:44 | 45.63399 | 8.71934 | 745 ft | 15 kts | 169° |
| 2026-05-05 12:44 | 45.63331 | 8.71941 | 746 ft | 3 kts | 206° |
| 2026-05-05 12:44 | 45.63310 | 8.71897 | 745 ft | 10 kts | 246° |
| 2026-05-05 12:44 | 45.63287 | 8.71748 | 743 ft | 19 kts | 258° |
| 2026-05-05 12:45 | 45.63263 | 8.71569 | 744 ft | 18 kts | 259° |
| 2026-05-05 12:45 | 45.63241 | 8.71403 | 743 ft | 10 kts | 259° |
| 2026-05-05 12:45 | 45.63227 | 8.71351 | 743 ft | 3 kts | 227° |
| 2026-05-05 12:45 | 45.63189 | 8.71343 | 744 ft | 9 kts | 174° |
| 2026-05-05 12:46 | 45.63155 | 8.71351 | 745 ft | 2 kts | 170° |
| 2026-05-05 12:46 | 45.63146 | 8.71353 | 743 ft | 0 kts | 170° |
| 2026-05-05 12:46 | 45.63143 | 8.71354 | 743 ft | 0 kts | 170° |